Terminal Aerodrome Forecast
Issued by NWS

Home | Current Version | Previous Version | Graphics & Text | Print | Product List | Glossary Off
Versions: 1 2 3 4 5 6 7 8 9 10 11 12 13 14 15 16 17 18 19 20 21 22 23 24 25 26 27 28 29 30 31 32

000
FTUS43 KDDC 302320
TAFGCK
TAF
KGCK 302320Z 3100/3124 18014KT P6SM BKN250
     FM310200 14012G22KT P6SM BKN200
     FM310600 12009KT P6SM VCTS OVC090CB
      TEMPO 3109/3113 VRB15G35KT 4SM -TSRA OVC040CB
     FM311300 03015G25KT 3SM -RA OVC030
     FM311800 04018G28KT 4SM -SHRA OVC030=

USA.gov is the U.S. government's official web portal to all federal, state and local government web resources and services.